sensor_id;sensor_type;location;lat;lon;timestamp;P1;durP1;ratioP1;P2;durP2;ratioP2
63782;SDS011;49925;52.522;5.732;2022-08-19T01:30:08;25.50;;;12.82;;
63782;SDS011;49925;52.522;5.732;2022-08-19T01:32:43;30.55;;;14.70;;
63782;SDS011;49925;52.522;5.732;2022-08-19T01:35:12;29.73;;;13.88;;
63782;SDS011;49925;52.522;5.732;2022-08-19T01:37:50;32.92;;;14.93;;
63782;SDS011;49925;52.522;5.732;2022-08-19T02:05:25;25.27;;;14.40;;
63782;SDS011;49925;52.522;5.732;2022-08-19T02:07:53;25.02;;;14.90;;
63782;SDS011;49925;52.522;5.732;2022-08-19T02:10:20;33.00;;;15.32;;
63782;SDS011;49925;52.522;5.732;2022-08-19T02:12:48;24.83;;;13.88;;
63782;SDS011;49925;52.522;5.732;2022-08-19T02:15:22;28.33;;;14.75;;
63782;SDS011;49925;52.522;5.732;2022-08-19T03:19:48;28.42;;;16.52;;
63782;SDS011;49925;52.522;5.732;2022-08-19T03:22:17;29.25;;;15.10;;
63782;SDS011;49925;52.522;5.732;2022-08-19T03:24:45;31.85;;;17.15;;
63782;SDS011;49925;52.522;5.732;2022-08-19T03:27:12;30.92;;;17.05;;
63782;SDS011;49925;52.522;5.732;2022-08-19T03:29:40;36.90;;;17.63;;
63782;SDS011;49925;52.522;5.732;2022-08-19T03:32:09;28.63;;;15.98;;
63782;SDS011;49925;52.522;5.732;2022-08-19T03:34:56;33.63;;;16.88;;
63782;SDS011;49925;52.522;5.732;2022-08-19T03:37:23;29.83;;;17.52;;
63782;SDS011;49925;52.522;5.732;2022-08-19T03:39:52;31.38;;;16.73;;
63782;SDS011;49925;52.522;5.732;2022-08-19T03:42:25;28.70;;;16.10;;
63782;SDS011;49925;52.522;5.732;2022-08-19T03:45:13;38.45;;;17.30;;
63782;SDS011;49925;52.522;5.732;2022-08-19T03:47:40;38.65;;;18.20;;
63782;SDS011;49925;52.522;5.732;2022-08-19T03:50:07;35.75;;;16.63;;
63782;SDS011;49925;52.522;5.732;2022-08-19T03:52:35;32.78;;;17.52;;
63782;SDS011;49925;52.522;5.732;2022-08-19T03:55:02;32.05;;;17.92;;
63782;SDS011;49925;52.522;5.732;2022-08-19T03:57:31;37.83;;;17.75;;
63782;SDS011;49925;52.522;5.732;2022-08-19T04:00:00;30.42;;;16.80;;
63782;SDS011;49925;52.522;5.732;2022-08-19T04:02:39;34.15;;;17.02;;
63782;SDS011;49925;52.522;5.732;2022-08-19T04:05:23;35.42;;;17.25;;
63782;SDS011;49925;52.522;5.732;2022-08-19T04:07:54;35.33;;;17.70;;
63782;SDS011;49925;52.522;5.732;2022-08-19T04:10:46;33.75;;;16.95;;
63782;SDS011;49925;52.522;5.732;2022-08-19T04:13:15;32.28;;;17.65;;
63782;SDS011;49925;52.522;5.732;2022-08-19T04:15:43;29.45;;;17.15;;
63782;SDS011;49925;52.522;5.732;2022-08-19T04:18:13;32.85;;;16.40;;
63782;SDS011;49925;52.522;5.732;2022-08-19T04:20:46;32.25;;;18.05;;
63782;SDS011;49925;52.522;5.732;2022-08-19T04:23:14;34.58;;;18.63;;
63782;SDS011;49925;52.522;5.732;2022-08-19T04:25:42;39.53;;;18.50;;
63782;SDS011;49925;52.522;5.732;2022-08-19T04:28:11;40.42;;;18.65;;
63782;SDS011;49925;52.522;5.732;2022-08-19T04:30:43;30.10;;;16.95;;
63782;SDS011;49925;52.522;5.732;2022-08-19T04:33:17;33.47;;;18.75;;
63782;SDS011;49925;52.522;5.732;2022-08-19T04:35:53;35.65;;;18.60;;
63782;SDS011;49925;52.522;5.732;2022-08-19T04:38:21;46.72;;;17.77;;
63782;SDS011;49925;52.522;5.732;2022-08-19T04:40:51;34.50;;;18.60;;
63782;SDS011;49925;52.522;5.732;2022-08-19T04:43:37;35.67;;;18.58;;
63782;SDS011;49925;52.522;5.732;2022-08-19T04:46:06;38.47;;;18.83;;
63782;SDS011;49925;52.522;5.732;2022-08-19T04:48:58;36.05;;;18.75;;
63782;SDS011;49925;52.522;5.732;2022-08-19T04:51:35;32.75;;;18.77;;
63782;SDS011;49925;52.522;5.732;2022-08-19T04:54:03;38.65;;;19.48;;
63782;SDS011;49925;52.522;5.732;2022-08-19T04:56:30;38.90;;;19.48;;
63782;SDS011;49925;52.522;5.732;2022-08-19T04:58:57;41.17;;;19.70;;
63782;SDS011;49925;52.522;5.732;2022-08-19T05:01:29;38.05;;;18.30;;
63782;SDS011;49925;52.522;5.732;2022-08-19T05:03:59;44.28;;;19.17;;
63782;SDS011;49925;52.522;5.732;2022-08-19T05:09:00;28.15;;;16.90;;
63782;SDS011;49925;52.522;5.732;2022-08-19T05:11:32;35.72;;;19.00;;
63782;SDS011;49925;52.522;5.732;2022-08-19T05:14:03;37.65;;;20.05;;
63782;SDS011;49925;52.522;5.732;2022-08-19T05:16:32;38.17;;;18.75;;
63782;SDS011;49925;52.522;5.732;2022-08-19T05:18:59;40.22;;;19.77;;
63782;SDS011;49925;52.522;5.732;2022-08-19T05:21:55;38.92;;;20.67;;
63782;SDS011;49925;52.522;5.732;2022-08-19T05:24:41;40.60;;;19.88;;
63782;SDS011;49925;52.522;5.732;2022-08-19T05:27:30;34.00;;;18.42;;
63782;SDS011;49925;52.522;5.732;2022-08-19T05:29:57;41.30;;;21.13;;
63782;SDS011;49925;52.522;5.732;2022-08-19T05:32:25;47.78;;;20.88;;
63782;SDS011;49925;52.522;5.732;2022-08-19T05:34:52;35.03;;;20.42;;
63782;SDS011;49925;52.522;5.732;2022-08-19T05:37:20;47.47;;;21.80;;
63782;SDS011;49925;52.522;5.732;2022-08-19T05:39:48;44.95;;;21.23;;
63782;SDS011;49925;52.522;5.732;2022-08-19T05:42:18;41.70;;;20.42;;
63782;SDS011;49925;52.522;5.732;2022-08-19T05:44:46;39.13;;;20.33;;
63782;SDS011;49925;52.522;5.732;2022-08-19T05:47:15;33.38;;;18.27;;
63782;SDS011;49925;52.522;5.732;2022-08-19T05:49:46;42.03;;;18.40;;
63782;SDS011;49925;52.522;5.732;2022-08-19T05:52:14;36.28;;;19.58;;
63782;SDS011;49925;52.522;5.732;2022-08-19T05:54:44;42.95;;;19.55;;
63782;SDS011;49925;52.522;5.732;2022-08-19T05:57:16;38.38;;;19.15;;
63782;SDS011;49925;52.522;5.732;2022-08-19T05:59:45;42.75;;;20.35;;
63782;SDS011;49925;52.522;5.732;2022-08-19T06:02:23;39.95;;;20.95;;
63782;SDS011;49925;52.522;5.732;2022-08-19T06:04:55;40.17;;;21.20;;
63782;SDS011;49925;52.522;5.732;2022-08-19T06:07:22;41.92;;;22.50;;
63782;SDS011;49925;52.522;5.732;2022-08-19T06:09:49;46.30;;;22.23;;
63782;SDS011;49925;52.522;5.732;2022-08-19T06:12:27;44.50;;;22.17;;
63782;SDS011;49925;52.522;5.732;2022-08-19T06:14:58;50.05;;;23.45;;
63782;SDS011;49925;52.522;5.732;2022-08-19T06:17:30;42.05;;;23.33;;
63782;SDS011;49925;52.522;5.732;2022-08-19T06:19:58;49.40;;;23.77;;
63782;SDS011;49925;52.522;5.732;2022-08-19T06:22:25;46.03;;;24.98;;
63782;SDS011;49925;52.522;5.732;2022-08-19T06:24:56;46.85;;;24.05;;
63782;SDS011;49925;52.522;5.732;2022-08-19T06:29:52;46.60;;;25.27;;
63782;SDS011;49925;52.522;5.732;2022-08-19T06:32:20;47.20;;;26.02;;
63782;SDS011;49925;52.522;5.732;2022-08-19T06:34:47;51.25;;;26.40;;
63782;SDS011;49925;52.522;5.732;2022-08-19T06:37:14;50.67;;;26.73;;
63782;SDS011;49925;52.522;5.732;2022-08-19T06:39:42;56.00;;;27.42;;
63782;SDS011;49925;52.522;5.732;2022-08-19T06:42:12;57.33;;;28.15;;
63782;SDS011;49925;52.522;5.732;2022-08-19T06:44:43;54.28;;;27.90;;
63782;SDS011;49925;52.522;5.732;2022-08-19T06:47:18;62.97;;;29.73;;
63782;SDS011;49925;52.522;5.732;2022-08-19T06:49:50;57.65;;;29.02;;
63782;SDS011;49925;52.522;5.732;2022-08-19T06:52:29;61.50;;;29.02;;
63782;SDS011;49925;52.522;5.732;2022-08-19T06:55:03;61.63;;;29.88;;
63782;SDS011;49925;52.522;5.732;2022-08-19T06:57:32;66.05;;;32.00;;
63782;SDS011;49925;52.522;5.732;2022-08-19T07:00:00;64.75;;;30.60;;
63782;SDS011;49925;52.522;5.732;2022-08-19T07:02:27;70.07;;;32.50;;
63782;SDS011;49925;52.522;5.732;2022-08-19T07:04:57;69.50;;;33.42;;
63782;SDS011;49925;52.522;5.732;2022-08-19T07:07:26;70.05;;;34.38;;
63782;SDS011;49925;52.522;5.732;2022-08-19T07:09:54;69.60;;;34.88;;
63782;SDS011;49925;52.522;5.732;2022-08-19T07:12:27;74.82;;;34.17;;
63782;SDS011;49925;52.522;5.732;2022-08-19T07:15:07;71.05;;;32.92;;
63782;SDS011;49925;52.522;5.732;2022-08-19T09:30:50;95.97;;;44.38;;
63782;SDS011;49925;52.522;5.732;2022-08-19T09:33:18;95.95;;;44.40;;
63782;SDS011;49925;52.522;5.732;2022-08-19T09:35:48;98.68;;;44.22;;
63782;SDS011;49925;52.522;5.732;2022-08-19T09:38:19;83.63;;;35.95;;
63782;SDS011;49925;52.522;5.732;2022-08-19T10:01:01;83.70;;;36.80;;
63782;SDS011;49925;52.522;5.732;2022-08-19T10:48:42;85.40;;;35.22;;
63782;SDS011;49925;52.522;5.732;2022-08-19T10:51:10;86.28;;;38.90;;
63782;SDS011;49925;52.522;5.732;2022-08-19T10:53:56;89.40;;;38.25;;
63782;SDS011;49925;52.522;5.732;2022-08-19T10:56:25;85.72;;;36.10;;
63782;SDS011;49925;52.522;5.732;2022-08-19T12:01:12;76.40;;;36.13;;
63782;SDS011;49925;52.522;5.732;2022-08-19T12:13:41;67.18;;;29.75;;
63782;SDS011;49925;52.522;5.732;2022-08-19T12:16:13;74.80;;;33.75;;
63782;SDS011;49925;52.522;5.732;2022-08-19T12:36:05;88.45;;;37.60;;
63782;SDS011;49925;52.522;5.732;2022-08-19T12:38:35;77.50;;;36.25;;
63782;SDS011;49925;52.522;5.732;2022-08-19T12:41:04;74.88;;;36.28;;
63782;SDS011;49925;52.522;5.732;2022-08-19T12:43:36;77.43;;;38.20;;
63782;SDS011;49925;52.522;5.732;2022-08-19T12:46:07;79.93;;;39.17;;
